Time;durP1;ratioP1;P1;durP2;ratioP2;P2;SDS_P1;SDS_P2;PMS_P1;PMS_P2;Temp;Humidity;BMP_temperature;BMP_pressure;BME280_temperature;BME280_humidity;BME280_pressure;Samples;Min_cycle;Max_cycle;Signal;HPM_P1;HPM_P2
2022/07/03 00:01:26;;;;;;;4.70;4.20;;;21.40;64.20;;;;;;5071571;28;20466;-46
2022/07/03 00:03:53;;;;;;;4.73;4.10;;;21.40;64.30;;;;;;5074214;28;20487;-45
2022/07/03 00:06:20;;;;;;;4.43;4.00;;;21.30;64.40;;;;;;5074062;28;20931;-46
2022/07/03 00:08:48;;;;;;;5.47;3.70;;;21.10;64.40;;;;;;5073887;28;20452;-46
2022/07/03 00:11:15;;;;;;;6.80;4.70;;;21.30;64.80;;;;;;5074181;28;20466;-45
2022/07/03 00:13:42;;;;;;;4.83;4.20;;;21.30;65.10;;;;;;5056148;28;20460;-46
2022/07/03 00:16:08;;;;;;;7.37;4.57;;;21.20;65.00;;;;;;5074001;28;20436;-47
2022/07/03 00:18:35;;;;;;;4.43;4.07;;;21.20;65.10;;;;;;5073642;28;20432;-46
2022/07/03 00:21:03;;;;;;;6.23;4.60;;;21.20;65.30;;;;;;5073923;28;20803;-46
2022/07/03 00:23:38;;;;;;;5.63;5.10;;;21.10;65.50;;;;;;5056249;28;20833;-44
2022/07/03 00:26:07;;;;;;;4.60;4.00;;;21.10;65.60;;;;;;5074120;28;20434;-45
2022/07/03 00:28:33;;;;;;;4.87;4.20;;;20.60;66.10;;;;;;5073692;28;20445;-45
2022/07/03 00:31:00;;;;;;;5.27;4.77;;;21.10;66.00;;;;;;5074044;28;20843;-45
2022/07/03 00:33:29;;;;;;;4.63;4.17;;;21.00;66.00;;;;;;5073979;28;20432;-45
2022/07/03 00:35:56;;;;;;;5.73;4.30;;;20.80;65.90;;;;;;5073709;28;20428;-45
2022/07/03 00:38:23;;;;;;;5.20;3.80;;;21.20;66.60;;;;;;5073634;28;20445;-46
2022/07/03 00:40:49;;;;;;;4.50;4.03;;;21.00;66.50;;;;;;5073732;28;20436;-45
2022/07/03 00:43:18;;;;;;;4.67;4.20;;;20.90;66.60;;;;;;5073581;28;20507;-46
2022/07/03 00:45:47;;;;;;;6.53;4.30;;;20.90;66.80;;;;;;5073690;28;20573;-45
2022/07/03 00:48:15;;;;;;;5.10;4.30;;;20.90;66.90;;;;;;5073673;28;20435;-45
2022/07/03 00:50:50;;;;;;;4.77;4.37;;;20.90;67.00;;;;;;5073070;28;20431;-45
2022/07/03 00:53:20;;;;;;;5.63;4.63;;;20.90;67.20;;;;;;5098123;22;20497;-44
2022/07/03 00:55:49;;;;;;;5.80;4.33;;;20.80;67.20;;;;;;5074628;28;20430;-44
2022/07/03 00:58:18;;;;;;;5.90;5.27;;;20.80;67.20;;;;;;5074782;28;20727;-44
2022/07/03 01:00:46;;;;;;;6.03;4.40;;;20.80;68.20;;;;;;5072888;28;20442;-43
2022/07/03 01:03:16;;;;;;;5.07;4.53;;;20.80;67.70;;;;;;5074086;28;20488;-45
2022/07/03 01:05:45;;;;;;;5.17;4.63;;;20.80;68.00;;;;;;5074523;28;20520;-43
2022/07/03 01:08:20;;;;;;;7.00;4.60;;;20.70;68.00;;;;;;5074248;28;20472;-44
2022/07/03 01:10:55;;;;;;;7.00;4.17;;;20.70;68.10;;;;;;5074509;28;20951;-43
2022/07/03 01:13:31;;;;;;;6.73;4.67;;;20.70;68.10;;;;;;5073943;28;20449;-45
2022/07/03 01:16:05;;;;;;;4.77;4.37;;;20.80;68.60;;;;;;5074467;28;20438;-44
2022/07/03 01:22:35;;;;;;;6.10;4.30;;;20.60;68.70;;;;;;5074202;28;20412;-46
2022/07/03 01:25:15;;;;;;;5.43;4.70;;;20.60;68.90;;;;;;5074428;28;20435;-43
2022/07/03 01:28:05;;;;;;;5.17;4.67;;;20.50;68.80;;;;;;5074156;28;20440;-43
2022/07/03 01:30:34;;;;;;;7.53;5.47;;;20.50;69.00;;;;;;5073696;28;20426;-44
2022/07/03 01:33:07;;;;;;;5.10;4.20;;;20.50;69.10;;;;;;5074235;28;20451;-45
2022/07/03 01:35:35;;;;;;;4.90;4.50;;;20.50;69.50;;;;;;5075119;28;20430;-45
2022/07/03 01:38:04;;;;;;;5.80;4.30;;;20.40;69.30;;;;;;5075669;28;20441;-43
2022/07/03 01:40:34;;;;;;;5.73;4.90;;;20.40;69.50;;;;;;5074963;28;20442;-47
2022/07/03 01:43:04;;;;;;;3.93;3.47;;;20.40;69.70;;;;;;5074905;28;20478;-43
2022/07/03 01:45:33;;;;;;;5.50;5.00;;;20.40;69.80;;;;;;5075400;28;20442;-43
2022/07/03 01:48:03;;;;;;;5.07;4.67;;;20.60;70.20;;;;;;5072417;28;20461;-45
2022/07/03 01:50:31;;;;;;;4.97;4.57;;;20.30;70.00;;;;;;5074070;28;20423;-44
2022/07/03 01:53:00;;;;;;;5.13;4.50;;;20.30;70.20;;;;;;5073444;28;20837;-45
2022/07/03 01:55:29;;;;;;;5.20;4.63;;;20.30;70.30;;;;;;5073421;28;20533;-45
2022/07/03 01:57:56;;;;;;;4.60;4.20;;;20.40;70.50;;;;;;5073472;28;20443;-44
2022/07/03 02:00:24;;;;;;;5.20;4.70;;;20.30;70.50;;;;;;5072975;28;20763;-44
2022/07/03 02:02:56;;;;;;;6.47;4.20;;;20.20;70.80;;;;;;5073051;28;20457;-43
2022/07/03 02:05:33;;;;;;;4.83;4.33;;;20.20;70.90;;;;;;5073632;28;20438;-44
2022/07/03 02:08:07;;;;;;;5.90;4.20;;;20.20;71.20;;;;;;5073425;28;20441;-44
2022/07/03 02:10:38;;;;;;;4.87;4.40;;;19.90;70.90;;;;;;5073073;28;20947;-44
2022/07/03 02:13:10;;;;;;;5.03;4.53;;;20.10;71.30;;;;;;5073148;28;20453;-44
2022/07/03 02:15:43;;;;;;;4.10;3.80;;;20.20;71.60;;;;;;5073992;28;20445;-44
2022/07/03 02:18:20;;;;;;;4.50;4.13;;;20.10;71.70;;;;;;5072834;28;20838;-44
2022/07/03 02:20:53;;;;;;;5.77;4.33;;;20.00;71.80;;;;;;5073890;28;20429;-46
2022/07/03 02:23:22;;;;;;;4.83;4.30;;;20.20;72.20;;;;;;5073178;28;20484;-45
2022/07/03 02:25:52;;;;;;;5.33;3.90;;;20.30;72.40;;;;;;5073549;28;20797;-44
2022/07/03 02:28:31;;;;;;;5.57;4.97;;;20.00;72.20;;;;;;5073254;28;20446;-45
2022/07/03 02:31:03;;;;;;;5.23;4.37;;;20.00;72.50;;;;;;5072934;28;20472;-44
2022/07/03 02:33:31;;;;;;;5.00;4.50;;;19.80;73.10;;;;;;5073281;28;20820;-44
2022/07/03 02:35:58;;;;;;;4.27;3.87;;;19.90;72.50;;;;;;5073630;28;20436;-46
2022/07/03 02:38:26;;;;;;;4.90;4.40;;;20.00;72.60;;;;;;5072940;28;20926;-43
2022/07/03 02:41:01;;;;;;;4.90;4.50;;;19.90;72.60;;;;;;5071812;28;20459;-44
2022/07/03 02:43:37;;;;;;;4.60;4.20;;;19.90;72.80;;;;;;5072990;28;20480;-45
2022/07/03 02:48:52;;;;;;;5.27;4.77;;;19.90;73.10;;;;;;5072193;28;20441;-46
2022/07/03 02:51:23;;;;;;;5.63;4.37;;;19.90;73.20;;;;;;5072741;28;20430;-45
2022/07/03 02:54:01;;;;;;;5.10;4.57;;;20.00;73.60;;;;;;5073340;28;20433;-44
2022/07/03 02:56:35;;;;;;;6.00;4.33;;;19.90;73.50;;;;;;5073761;28;20436;-43
2022/07/03 02:59:08;;;;;;;5.27;4.67;;;19.90;73.70;;;;;;5072703;28;20488;-44
2022/07/03 03:01:45;;;;;;;5.93;4.17;;;19.80;73.70;;;;;;5072904;28;20469;-44
2022/07/03 03:04:20;;;;;;;5.40;4.37;;;19.80;73.90;;;;;;5073615;28;20473;-43
2022/07/03 03:06:52;;;;;;;5.43;4.57;;;19.80;74.00;;;;;;5074005;28;20428;-44
2022/07/03 03:09:25;;;;;;;5.43;4.93;;;19.80;74.20;;;;;;5073350;28;20956;-44
2022/07/03 03:11:53;;;;;;;9.97;8.17;;;19.80;74.20;;;;;;5074372;28;20475;-43
2022/07/03 03:14:21;;;;;;;5.33;4.83;;;19.70;74.20;;;;;;5073990;28;20472;-44
2022/07/03 03:16:53;;;;;;;6.03;4.63;;;19.70;74.30;;;;;;5075031;28;20433;-45
2022/07/03 03:19:22;;;;;;;4.97;4.57;;;19.80;74.50;;;;;;5074849;28;20448;-44
2022/07/03 03:21:57;;;;;;;5.30;4.70;;;19.80;74.50;;;;;;5075312;28;21032;-44
2022/07/03 03:24:25;;;;;;;5.63;4.40;;;19.80;75.50;;;;;;5074871;28;20476;-45
2022/07/03 03:26:52;;;;;;;4.33;3.97;;;19.80;74.90;;;;;;5074817;28;20928;-44
2022/07/03 03:29:19;;;;;;;10.07;5.00;;;19.80;74.90;;;;;;5074366;28;20441;-44
2022/07/03 03:31:46;;;;;;;6.33;4.40;;;19.60;74.80;;;;;;5074264;28;20552;-45
2022/07/03 03:34:14;;;;;;;5.17;4.70;;;19.80;75.20;;;;;;5074784;28;20949;-44
2022/07/03 03:36:41;;;;;;;5.40;4.90;;;19.50;75.00;;;;;;5078255;28;20490;-45
2022/07/03 03:39:08;;;;;;;7.27;4.67;;;19.80;75.40;;;;;;5078365;28;20444;-44
2022/07/03 03:41:35;;;;;;;5.50;5.00;;;19.80;76.10;;;;;;5078056;28;20483;-43
2022/07/03 03:44:02;;;;;;;5.03;4.63;;;19.80;75.40;;;;;;5078167;28;20489;-44
2022/07/03 03:46:28;;;;;;;4.70;4.30;;;20.00;75.60;;;;;;5077612;28;20438;-44
2022/07/03 03:48:55;;;;;;;5.80;5.20;;;19.80;75.40;;;;;;5077321;28;20943;-43
2022/07/03 03:51:23;;;;;;;6.40;4.97;;;19.80;75.40;;;;;;5078136;28;20918;-44
2022/07/03 03:53:50;;;;;;;5.30;4.10;;;19.80;75.40;;;;;;5078784;28;20449;-45
2022/07/03 03:56:17;;;;;;;6.13;4.57;;;19.90;75.60;;;;;;5078521;28;20445;-43
2022/07/03 03:58:44;;;;;;;6.13;4.60;;;19.90;75.60;;;;;;5078879;28;20435;-43
2022/07/03 04:01:12;;;;;;;5.57;4.93;;;19.90;75.50;;;;;;5079505;28;20438;-45
2022/07/03 04:03:40;;;;;;;5.60;5.00;;;20.00;75.60;;;;;;5078573;28;20476;-44
2022/07/03 04:06:06;;;;;;;4.70;4.30;;;20.00;75.50;;;;;;5078408;28;20448;-44
2022/07/03 04:08:35;;;;;;;4.67;4.27;;;19.70;74.90;;;;;;5076971;28;20448;-44
2022/07/03 04:11:01;;;;;;;6.37;5.23;;;20.20;75.30;;;;;;5076216;28;20440;-45
2022/07/03 04:13:28;;;;;;;8.20;4.20;;;20.10;75.70;;;;;;5075756;28;20453;-44
2022/07/03 04:15:55;;;;;;;5.23;4.10;;;20.40;74.80;;;;;;5075498;28;20438;-45
2022/07/03 04:18:22;;;;;;;5.70;4.90;;;20.50;74.50;;;;;;5075937;28;20449;-45
2022/07/03 04:20:49;;;;;;;6.20;4.60;;;20.60;74.30;;;;;;5075307;28;20422;-45
2022/07/03 04:23:15;;;;;;;4.97;4.47;;;20.70;74.10;;;;;;5075097;28;20459;-44
2022/07/03 04:25:43;;;;;;;5.50;4.63;;;21.10;74.00;;;;;;5075156;28;20980;-44
2022/07/03 04:28:10;;;;;;;5.00;4.50;;;21.00;73.50;;;;;;5075273;28;20438;-45
2022/07/03 04:30:37;;;;;;;5.77;4.40;;;21.20;73.60;;;;;;5075056;28;20442;-45
2022/07/03 04:33:04;;;;;;;5.20;4.70;;;21.30;73.00;;;;;;5075057;28;20460;-45
2022/07/03 04:35:30;;;;;;;5.20;4.70;;;21.40;72.70;;;;;;5075446;28;20432;-43
2022/07/03 04:37:57;;;;;;;5.10;4.37;;;21.50;72.40;;;;;;5074842;28;20827;-45
2022/07/03 04:40:24;;;;;;;6.80;5.10;;;21.60;72.20;;;;;;5074591;28;20437;-45
2022/07/03 04:42:52;;;;;;;4.93;4.50;;;21.80;72.00;;;;;;5075006;28;20458;-43
2022/07/03 04:45:18;;;;;;;4.80;4.30;;;21.90;71.80;;;;;;5074958;28;20517;-44
2022/07/03 04:47:45;;;;;;;5.10;4.60;;;22.00;71.70;;;;;;5074213;28;20994;-44
2022/07/03 04:50:11;;;;;;;4.53;4.13;;;22.00;71.40;;;;;;5074177;28;20445;-45
2022/07/03 04:52:38;;;;;;;5.83;4.80;;;22.20;71.30;;;;;;5075415;28;20466;-44
2022/07/03 04:55:06;;;;;;;5.70;4.53;;;22.10;70.90;;;;;;5074463;28;20425;-43
2022/07/03 04:57:32;;;;;;;4.07;3.67;;;22.40;70.90;;;;;;5074651;28;20444;-44
2022/07/03 05:00:00;;;;;;;5.10;4.07;;;22.50;70.60;;;;;;5074359;28;20917;-45
2022/07/03 05:02:27;;;;;;;6.07;5.40;;;22.70;70.40;;;;;;5074893;28;20821;-45
2022/07/03 05:04:53;;;;;;;4.93;4.20;;;22.70;70.20;;;;;;5074356;28;20483;-43
2022/07/03 05:07:20;;;;;;;5.13;4.33;;;22.70;69.90;;;;;;5074677;28;20788;-45
2022/07/03 05:09:46;;;;;;;7.00;4.20;;;22.80;69.70;;;;;;5074719;28;20974;-44
2022/07/03 05:12:13;;;;;;;5.00;4.50;;;22.90;69.60;;;;;;5074568;28;20456;-44
2022/07/03 05:14:40;;;;;;;7.47;4.50;;;22.90;69.50;;;;;;5074333;28;20430;-44
2022/07/03 05:17:07;;;;;;;4.80;4.40;;;23.00;69.30;;;;;;5074223;28;20435;-44
2022/07/03 05:19:34;;;;;;;5.93;4.27;;;23.00;69.10;;;;;;5073880;28;20809;-44
2022/07/03 05:22:01;;;;;;;6.20;4.37;;;23.10;69.00;;;;;;5074048;28;20457;-44
2022/07/03 05:24:27;;;;;;;4.77;4.07;;;23.20;68.80;;;;;;5074007;28;20499;-44
2022/07/03 05:26:54;;;;;;;5.40;4.60;;;23.30;68.60;;;;;;5073895;28;20906;-44
2022/07/03 05:29:20;;;;;;;4.80;4.30;;;23.30;68.20;;;;;;5073534;28;20441;-45
2022/07/03 05:31:47;;;;;;;4.87;4.20;;;23.20;68.10;;;;;;5073971;28;20464;-45
2022/07/03 05:34:15;;;;;;;5.37;4.93;;;23.50;68.10;;;;;;5074195;28;20941;-44
2022/07/03 05:36:42;;;;;;;4.67;3.77;;;23.60;67.90;;;;;;5074091;28;20426;-44
2022/07/03 05:41:52;;;;;;;4.60;4.20;;;23.70;67.50;;;;;;5074218;28;20479;-44
2022/07/03 05:44:19;;;;;;;4.00;3.60;;;23.70;67.20;;;;;;5074564;28;20472;-45
2022/07/03 05:46:46;;;;;;;3.73;3.40;;;23.80;67.10;;;;;;5073766;28;20436;-44
2022/07/03 05:49:12;;;;;;;3.93;3.63;;;23.90;66.80;;;;;;5073214;28;20439;-44
2022/07/03 05:51:40;;;;;;;6.00;3.50;;;23.90;66.60;;;;;;5073321;28;20474;-44
2022/07/03 05:54:08;;;;;;;3.77;3.47;;;24.00;66.30;;;;;;5073646;28;20811;-45
2022/07/03 05:56:34;;;;;;;4.33;3.93;;;24.00;65.90;;;;;;5073641;28;20432;-45
2022/07/03 05:59:01;;;;;;;4.57;3.93;;;24.20;66.00;;;;;;5071838;28;20436;-45
2022/07/03 06:01:27;;;;;;;10.33;3.70;;;24.20;65.50;;;;;;5073275;28;20464;-45
2022/07/03 06:03:54;;;;;;;3.97;3.23;;;24.20;65.30;;;;;;5072179;28;20451;-46
2022/07/03 06:06:21;;;;;;;4.40;3.20;;;24.30;65.00;;;;;;5073284;28;20424;-44
2022/07/03 06:08:49;;;;;;;3.80;2.83;;;24.40;64.60;;;;;;5072786;28;20847;-44
2022/07/03 06:11:15;;;;;;;2.57;2.37;;;24.40;63.90;;;;;;5073242;28;20839;-45
2022/07/03 06:13:42;;;;;;;3.60;3.30;;;24.50;63.90;;;;;;5073067;28;20990;-45
2022/07/03 06:16:08;;;;;;;3.00;2.63;;;24.60;63.60;;;;;;5073432;28;20432;-45
2022/07/03 06:18:35;;;;;;;3.83;3.17;;;24.70;63.10;;;;;;5072802;28;20445;-44
2022/07/03 06:21:10;;;;;;;3.97;3.33;;;24.80;62.60;;;;;;5090236;28;20529;-45
2022/07/03 06:23:36;;;;;;;3.40;2.80;;;24.90;62.30;;;;;;5090475;28;20441;-45
2022/07/03 06:26:03;;;;;;;2.97;2.77;;;24.90;62.10;;;;;;5090114;28;20926;-44
2022/07/03 06:28:29;;;;;;;2.97;2.67;;;24.90;61.90;;;;;;5091224;28;20443;-44
2022/07/03 06:30:56;;;;;;;3.30;3.00;;;24.90;61.90;;;;;;5091111;28;20427;-44
2022/07/03 06:33:23;;;;;;;2.93;2.70;;;25.00;61.90;;;;;;5111250;22;20456;-44
2022/07/03 06:35:50;;;;;;;4.20;3.00;;;25.10;61.60;;;;;;5047975;28;20574;-45
2022/07/03 06:38:17;;;;;;;4.73;3.43;;;25.10;61.30;;;;;;5048059;28;20434;-44
2022/07/03 06:40:44;;;;;;;8.10;3.60;;;25.20;61.30;;;;;;5047354;28;20473;-46
2022/07/03 06:43:11;;;;;;;3.80;3.50;;;25.20;61.20;;;;;;5047834;28;20438;-44
2022/07/03 06:45:37;;;;;;;4.60;3.03;;;25.20;61.20;;;;;;5047926;28;20436;-44
2022/07/03 06:48:04;;;;;;;3.93;3.33;;;25.30;61.10;;;;;;5047689;28;20435;-45
2022/07/03 06:50:31;;;;;;;4.93;3.33;;;25.30;60.80;;;;;;5045980;28;20558;-45
2022/07/03 06:52:58;;;;;;;3.10;2.90;;;25.30;60.50;;;;;;5047578;28;20435;-45
2022/07/03 06:55:25;;;;;;;3.77;2.90;;;25.30;60.40;;;;;;5047462;28;20573;-46
2022/07/03 06:57:52;;;;;;;3.23;2.77;;;25.30;60.60;;;;;;5047343;28;20432;-45
2022/07/03 07:00:19;;;;;;;5.53;3.90;;;25.30;60.80;;;;;;5046902;28;20478;-46
2022/07/03 07:02:45;;;;;;;3.00;2.80;;;25.30;60.80;;;;;;5047489;28;20437;-46
2022/07/03 07:05:12;;;;;;;3.03;2.73;;;25.30;60.60;;;;;;5047352;28;20760;-45
2022/07/03 07:07:39;;;;;;;3.83;3.00;;;25.40;60.60;;;;;;5047513;28;20449;-46
2022/07/03 07:10:07;;;;;;;3.80;3.40;;;25.40;60.50;;;;;;5047218;28;20428;-45
2022/07/03 07:12:35;;;;;;;3.50;3.00;;;25.30;60.20;;;;;;5047205;28;20431;-46
2022/07/03 07:15:01;;;;;;;3.10;2.90;;;25.30;60.20;;;;;;5047176;28;20455;-45
2022/07/03 07:17:28;;;;;;;5.63;3.07;;;25.30;60.20;;;;;;5047400;28;20434;-43
2022/07/03 07:19:56;;;;;;;3.50;3.20;;;25.30;60.20;;;;;;5046538;28;20956;-44
2022/07/03 07:22:25;;;;;;;4.07;3.03;;;25.30;60.30;;;;;;5046808;28;20434;-44
2022/07/03 07:24:51;;;;;;;3.20;2.83;;;25.40;60.00;;;;;;5046694;28;20978;-44
2022/07/03 07:27:18;;;;;;;3.80;2.93;;;25.40;60.00;;;;;;5046922;28;20914;-45
2022/07/03 07:29:46;;;;;;;4.63;3.00;;;25.40;60.00;;;;;;5046356;28;20515;-45
2022/07/03 07:32:13;;;;;;;3.57;3.10;;;25.40;59.70;;;;;;5035161;28;20432;-45
2022/07/03 07:34:39;;;;;;;3.20;2.90;;;25.40;59.60;;;;;;5033468;28;20482;-44
2022/07/03 07:37:06;;;;;;;2.50;2.30;;;25.40;59.70;;;;;;5033535;28;20445;-45
2022/07/03 07:39:33;;;;;;;8.67;2.90;;;25.40;59.60;;;;;;5032976;28;20478;-45
2022/07/03 07:41:59;;;;;;;3.17;2.70;;;25.40;59.50;;;;;;5033168;28;20436;-45
2022/07/03 07:44:26;;;;;;;3.47;3.17;;;25.40;59.60;;;;;;5033326;28;20464;-46
2022/07/03 07:46:54;;;;;;;3.40;2.90;;;25.50;59.70;;;;;;5033374;28;20449;-45
2022/07/03 07:49:20;;;;;;;3.47;2.80;;;25.50;59.70;;;;;;5032553;28;20443;-46
2022/07/03 07:51:47;;;;;;;3.03;2.80;;;25.50;59.70;;;;;;5033340;28;20439;-44
2022/07/03 07:54:13;;;;;;;2.90;2.60;;;25.50;59.50;;;;;;5033093;28;20455;-45
2022/07/03 07:56:40;;;;;;;3.13;2.63;;;25.50;59.30;;;;;;5032867;28;20427;-45
2022/07/03 07:59:07;;;;;;;4.27;2.90;;;25.50;59.20;;;;;;5032659;28;20438;-45
2022/07/03 08:07:03;;;;;;;2.70;2.23;;;25.60;58.50;;;;;;5033023;28;20597;-44
2022/07/03 08:09:30;;;;;;;2.43;2.23;;;25.60;58.30;;;;;;5032476;28;20454;-45
2022/07/03 08:11:57;;;;;;;3.17;2.87;;;25.70;58.30;;;;;;5032728;28;20804;-46
2022/07/03 08:14:23;;;;;;;2.67;2.47;;;25.70;58.10;;;;;;5032297;28;20977;-44
2022/07/03 08:16:50;;;;;;;3.23;2.63;;;25.60;57.70;;;;;;5033343;28;20439;-45
2022/07/03 08:19:18;;;;;;;5.20;3.00;;;25.70;57.90;;;;;;5032791;28;20522;-45
2022/07/03 08:21:45;;;;;;;2.60;2.40;;;25.70;58.00;;;;;;5033087;28;20781;-44
2022/07/03 08:24:12;;;;;;;4.90;2.57;;;25.80;57.80;;;;;;5032726;28;20482;-48
2022/07/03 08:26:39;;;;;;;2.87;2.47;;;25.80;57.80;;;;;;5032731;28;20435;-46
2022/07/03 08:29:06;;;;;;;5.40;3.43;;;25.80;57.70;;;;;;5032517;28;20435;-47
2022/07/03 08:31:32;;;;;;;2.87;2.60;;;25.80;57.50;;;;;;5032484;28;20453;-47
2022/07/03 08:33:59;;;;;;;3.20;2.67;;;25.80;57.30;;;;;;5031931;28;20475;-47
2022/07/03 08:36:27;;;;;;;3.00;2.70;;;25.80;57.30;;;;;;5032911;28;20467;-46
2022/07/03 08:38:54;;;;;;;3.20;2.83;;;25.80;57.20;;;;;;5032007;28;20443;-46
2022/07/03 08:41:21;;;;;;;4.93;2.70;;;25.90;57.20;;;;;;5032552;28;20808;-45
2022/07/03 08:43:50;;;;;;;5.93;2.73;;;25.90;57.00;;;;;;5031280;28;20467;-46
2022/07/03 08:46:17;;;;;;;4.70;2.67;;;25.90;57.00;;;;;;5032108;28;20435;-46
2022/07/03 08:48:45;;;;;;;3.73;2.70;;;25.90;57.00;;;;;;5031859;28;20476;-46
2022/07/03 08:51:12;;;;;;;4.13;3.73;;;25.90;56.60;;;;;;5032813;28;20474;-46
2022/07/03 08:53:40;;;;;;;4.00;2.97;;;25.90;56.80;;;;;;5032276;28;20463;-46
2022/07/03 08:56:08;;;;;;;5.80;2.70;;;25.90;56.70;;;;;;5031902;28;20868;-47
2022/07/03 08:58:35;;;;;;;4.40;2.87;;;26.00;56.70;;;;;;5031734;28;20437;-47
2022/07/03 09:01:02;;;;;;;2.47;2.27;;;26.00;56.80;;;;;;5032045;28;20502;-47
2022/07/03 09:03:29;;;;;;;2.87;2.60;;;26.00;56.90;;;;;;5031715;28;20467;-47
2022/07/03 09:05:57;;;;;;;6.70;2.70;;;26.00;56.60;;;;;;5032224;28;20458;-47
2022/07/03 09:08:27;;;;;;;6.53;2.97;;;26.00;56.60;;;;;;5031659;28;20455;-47
2022/07/03 09:10:55;;;;;;;6.93;2.93;;;26.00;56.40;;;;;;5031846;28;20814;-47
2022/07/03 09:13:21;;;;;;;3.50;2.73;;;26.00;56.50;;;;;;5032097;28;20439;-46
2022/07/03 09:15:48;;;;;;;3.03;2.50;;;26.00;56.80;;;;;;5030418;28;20555;-46
2022/07/03 09:18:15;;;;;;;4.13;2.93;;;26.10;56.90;;;;;;5032685;28;20442;-47
2022/07/03 09:20:43;;;;;;;3.23;2.50;;;26.00;56.10;;;;;;5031662;28;20483;-46
2022/07/03 09:23:14;;;;;;;3.93;2.83;;;26.10;55.60;;;;;;5031604;28;20445;-46
2022/07/03 09:25:52;;;;;;;4.13;2.40;;;26.10;55.60;;;;;;5031756;28;20431;-46
2022/07/03 09:32:27;;;;;;;4.30;2.60;;;26.20;55.50;;;;;;5031671;28;20398;-46
2022/07/03 09:35:17;;;;;;;2.60;2.40;;;26.50;55.70;;;;;;5029830;28;20485;-46
2022/07/03 09:37:53;;;;;;;6.17;2.70;;;26.20;54.80;;;;;;5029991;28;20451;-46
2022/07/03 09:40:21;;;;;;;2.87;2.27;;;26.20;54.90;;;;;;5031036;28;20476;-46
2022/07/03 09:43:01;;;;;;;2.60;2.17;;;26.20;53.90;;;;;;5031251;28;20433;-47
2022/07/03 09:45:28;;;;;;;3.83;2.30;;;26.20;54.10;;;;;;5030895;28;20466;-47
2022/07/03 09:48:00;;;;;;;2.63;2.43;;;26.20;54.30;;;;;;5030780;28;20427;-47
2022/07/03 09:50:27;;;;;;;4.00;2.30;;;26.30;54.40;;;;;;5030816;28;20428;-47
2022/07/03 09:52:53;;;;;;;6.10;2.47;;;26.30;54.10;;;;;;5030706;28;20874;-46
2022/07/03 09:55:21;;;;;;;7.90;2.90;;;26.50;54.30;;;;;;5030852;28;20451;-46
2022/07/03 09:58:01;;;;;;;3.27;2.47;;;25.90;53.80;;;;;;5030611;28;20435;-45
2022/07/03 10:00:29;;;;;;;4.13;2.67;;;26.40;54.30;;;;;;5030430;28;20475;-47
2022/07/03 10:02:59;;;;;;;4.80;2.47;;;26.40;54.50;;;;;;5030757;28;20443;-46
2022/07/03 10:05:28;;;;;;;2.77;2.50;;;26.40;54.50;;;;;;5030413;28;20932;-48
2022/07/03 10:07:57;;;;;;;2.63;2.43;;;26.50;54.30;;;;;;5031328;28;20428;-45
2022/07/03 10:10:26;;;;;;;2.77;2.57;;;26.60;54.20;;;;;;5030807;28;20542;-46
2022/07/03 10:12:54;;;;;;;3.60;2.70;;;26.60;53.90;;;;;;5030721;28;20424;-47
2022/07/03 10:15:22;;;;;;;5.07;2.43;;;26.60;53.90;;;;;;5030815;28;21209;-48
2022/07/03 10:17:50;;;;;;;2.70;2.50;;;26.60;54.00;;;;;;5030986;28;20446;-47
2022/07/03 10:20:26;;;;;;;2.60;2.40;;;26.60;54.00;;;;;;5030760;28;20478;-46
2022/07/03 10:22:54;;;;;;;4.00;2.40;;;26.60;54.00;;;;;;5029713;28;20447;-47
2022/07/03 10:25:21;;;;;;;3.93;2.47;;;26.70;54.10;;;;;;5028951;28;20471;-47
2022/07/03 10:27:48;;;;;;;2.33;2.10;;;26.70;53.80;;;;;;5030538;28;20439;-46
2022/07/03 10:30:16;;;;;;;3.50;2.53;;;26.90;53.90;;;;;;5030755;28;20448;-46
2022/07/03 10:32:44;;;;;;;2.40;2.20;;;26.80;54.10;;;;;;5030711;28;20528;-47
2022/07/03 10:35:13;;;;;;;4.47;2.33;;;26.80;54.10;;;;;;5029236;28;20479;-47
2022/07/03 10:37:52;;;;;;;4.77;2.30;;;26.80;54.00;;;;;;5030291;28;20472;-47
2022/07/03 10:46:12;;;;;;;3.10;2.80;;;26.90;53.60;;;;;;5030320;28;20454;-47
2022/07/03 10:48:52;;;;;;;2.23;2.07;;;26.90;53.60;;;;;;5030067;28;20444;-48
2022/07/03 10:51:19;;;;;;;5.30;2.50;;;27.00;53.60;;;;;;5029875;28;20481;-48
2022/07/03 10:53:47;;;;;;;2.90;2.40;;;27.00;53.50;;;;;;5029887;28;20909;-48
2022/07/03 10:56:15;;;;;;;4.37;3.40;;;27.00;53.50;;;;;;5030251;28;20438;-48
2022/07/03 10:58:56;;;;;;;2.77;2.57;;;27.00;53.60;;;;;;5029952;28;20461;-48
2022/07/03 11:01:26;;;;;;;3.13;2.57;;;27.10;53.70;;;;;;5030460;28;20831;-48
2022/07/03 11:03:55;;;;;;;2.30;2.10;;;27.10;54.10;;;;;;5030428;28;20967;-48
2022/07/03 11:06:23;;;;;;;2.43;2.23;;;27.20;54.10;;;;;;5031259;28;20435;-47
2022/07/03 11:09:03;;;;;;;2.93;2.37;;;27.20;54.00;;;;;;5033707;28;20439;-47
2022/07/03 11:11:57;;;;;;;3.70;2.43;;;27.30;53.70;;;;;;5033868;28;20891;-47
2022/07/03 11:14:25;;;;;;;3.43;2.40;;;27.30;53.70;;;;;;5033868;28;20471;-49
2022/07/03 11:17:17;;;;;;;2.90;2.60;;;27.30;53.70;;;;;;5034076;28;20722;-48
2022/07/03 11:19:43;;;;;;;3.70;2.43;;;27.40;53.60;;;;;;5033639;28;20443;-47
2022/07/03 11:22:17;;;;;;;2.40;2.20;;;27.40;53.60;;;;;;5033818;28;20505;-47
2022/07/03 11:24:46;;;;;;;3.27;2.73;;;27.40;53.40;;;;;;5033486;28;20457;-47
2022/07/03 11:27:20;;;;;;;3.33;2.10;;;27.40;53.20;;;;;;5033749;28;20513;-47
2022/07/03 11:29:52;;;;;;;4.13;2.70;;;27.40;53.10;;;;;;5033406;28;20419;-47
2022/07/03 11:32:45;;;;;;;3.47;3.17;;;27.40;53.10;;;;;;5033674;28;20934;-48
2022/07/03 11:35:46;;;;;;;2.60;2.37;;;27.50;53.20;;;;;;5033359;28;20542;-46
2022/07/03 11:38:15;;;;;;;5.00;2.70;;;27.60;52.60;;;;;;5033432;28;20462;-49
2022/07/03 11:40:44;;;;;;;3.03;2.53;;;27.60;52.70;;;;;;5032759;28;20520;-48
2022/07/03 11:43:12;;;;;;;3.83;3.17;;;27.70;52.60;;;;;;5033387;28;20438;-48
2022/07/03 11:45:39;;;;;;;2.80;2.60;;;27.70;52.70;;;;;;5033200;28;20451;-48
2022/07/03 11:48:08;;;;;;;2.57;2.23;;;27.70;52.50;;;;;;5033097;28;20581;-47
2022/07/03 11:50:39;;;;;;;5.50;5.00;;;27.80;52.30;;;;;;5032739;28;20470;-48
2022/07/03 11:53:23;;;;;;;4.93;2.40;;;27.80;51.90;;;;;;5032715;28;20427;-48
2022/07/03 11:55:54;;;;;;;2.43;2.20;;;27.80;52.00;;;;;;5033276;28;20454;-48
2022/07/03 11:58:21;;;;;;;2.97;1.97;;;27.80;51.90;;;;;;5032860;28;20481;-47
2022/07/03 12:00:48;;;;;;;3.03;2.03;;;27.80;51.70;;;;;;5032740;28;20471;-47
2022/07/03 12:03:16;;;;;;;2.70;2.10;;;27.90;51.60;;;;;;5033053;28;20474;-47
2022/07/03 12:05:53;;;;;;;5.77;2.10;;;27.90;51.40;;;;;;5032900;28;20439;-47
2022/07/03 12:08:24;;;;;;;2.07;1.90;;;27.90;51.30;;;;;;5032723;28;20435;-47
2022/07/03 12:10:57;;;;;;;2.93;2.07;;;27.90;51.40;;;;;;5032955;28;20440;-47
2022/07/03 12:13:25;;;;;;;2.43;2.10;;;27.90;51.30;;;;;;5032365;28;20435;-47
2022/07/03 12:15:51;;;;;;;3.20;2.10;;;28.00;51.30;;;;;;5033126;28;20947;-47
2022/07/03 12:18:19;;;;;;;5.23;2.27;;;28.00;51.10;;;;;;5032590;28;20829;-48
2022/07/03 12:20:46;;;;;;;2.80;2.10;;;28.10;50.70;;;;;;5031667;28;20449;-48
2022/07/03 12:23:12;;;;;;;3.30;2.30;;;28.20;50.60;;;;;;5032420;28;20440;-47
2022/07/03 12:25:39;;;;;;;3.10;2.10;;;28.30;50.40;;;;;;5032126;28;20435;-48
2022/07/03 12:28:07;;;;;;;2.27;1.80;;;28.30;50.50;;;;;;5032521;28;20435;-48
2022/07/03 12:30:35;;;;;;;2.50;2.30;;;28.30;50.20;;;;;;5032038;28;20439;-48
2022/07/03 12:33:01;;;;;;;3.10;2.20;;;28.30;50.20;;;;;;5032200;28;20438;-47
2022/07/03 12:35:29;;;;;;;5.80;2.30;;;28.30;50.50;;;;;;5062730;22;20498;-43
2022/07/03 12:37:57;;;;;;;2.70;2.37;;;28.30;49.90;;;;;;5053134;28;20438;-43
2022/07/03 12:40:23;;;;;;;4.27;2.77;;;28.30;49.90;;;;;;5052123;28;20473;-44
2022/07/03 12:42:52;;;;;;;3.80;2.27;;;28.30;50.00;;;;;;5053681;28;20835;-44
2022/07/03 12:45:22;;;;;;;2.40;2.20;;;28.30;50.00;;;;;;5053057;28;20840;-43
2022/07/03 12:47:58;;;;;;;2.23;2.03;;;28.30;49.90;;;;;;5052479;28;20924;-43
2022/07/03 12:50:25;;;;;;;2.63;2.27;;;28.40;49.70;;;;;;5052993;28;20499;-45
2022/07/03 12:52:54;;;;;;;2.77;2.40;;;28.50;49.80;;;;;;5053239;28;20435;-44
2022/07/03 12:55:24;;;;;;;2.80;2.33;;;28.60;49.60;;;;;;5052401;28;20450;-43
2022/07/03 13:00:52;;;;;;;4.33;3.57;;;28.80;49.10;;;;;;5051420;28;20439;-44
2022/07/03 13:03:28;;;;;;;4.60;3.03;;;29.00;49.10;;;;;;5052181;28;20449;-43
2022/07/03 13:05:55;;;;;;;3.20;2.43;;;29.10;48.90;;;;;;5052735;28;20445;-42
2022/07/03 13:08:22;;;;;;;2.67;2.47;;;29.20;48.50;;;;;;5051146;28;20955;-43
2022/07/03 13:10:56;;;;;;;2.57;1.80;;;29.30;48.40;;;;;;5052139;28;20915;-44
2022/07/03 13:13:23;;;;;;;3.57;2.30;;;29.30;47.50;;;;;;5052152;28;20754;-44
2022/07/03 13:16:00;;;;;;;2.83;2.57;;;29.30;47.40;;;;;;5052225;28;20455;-43
2022/07/03 13:18:27;;;;;;;2.67;2.20;;;29.30;47.10;;;;;;5051896;28;20445;-43
2022/07/03 13:21:03;;;;;;;2.23;1.90;;;29.20;47.10;;;;;;5051784;28;20482;-46
2022/07/03 13:23:30;;;;;;;3.17;1.80;;;29.20;46.70;;;;;;5051886;28;20437;-45
2022/07/03 13:25:57;;;;;;;2.43;2.23;;;29.20;46.70;;;;;;5051856;28;20931;-44